Main page
METAR-TAF:

METAR-TAF

Airports :

Ouagadougou Airport

Ouagadougou, Burkina Faso

latitude: 12-21N, longitude: 001-31W, elevation: 316 m

Current weather observation

The report was made 3 hours and 51 minutes ago, at 14:00 UTC
Wind 6 kt from the Southwest, varying between South/Southeast and North/Northwest
Temperature 31°C
Humidity 63%
Pressure 1012 hPa
Visibility 10 km or more
Few clouds at a height of 2000 ft

METAR: DFFD 151400Z 23006KT 160V330 9999 FEW020 31/23 Q1012 NOSIG

Time: 17:51 (17:51 UTC)

Forecast

The report was made 6 hours and 51 minutes ago, at 11:00 UTC
Forecast valid from 15 at 12 UTC to 16 at 18 UTC
Wind 8 kt from the West/Southwest
Visibility 10 km or more
Few clouds at a height of 2600 ft
Probability 40% :
Temporary
from 15 at 14 UTC to 15 at 21 UTC
Visibility: 4000 m
Scattered clouds at a height of 2600 ft
Few clouds at a height of 4000 ft, Cumulonimbus.
thunderstorm, rain,

TAF: DFFD 151100Z 1512/1618 24008KT 9999 FEW026 PROB40 TEMPO 1514/1521 4000 TSRA SCT026 FEW040CB

Weather observations and forecasts of more than 4000 airports (METAR and TAF reports).

The available stations are represented by yellow and red dots on the map.

Hover mouse over dot to see the name of the station.

Then click to see weather observations and forecasts.

To change the map : click on the green buttons with a black cross to zoom in, on the green button with a dash to zoom out, or on the green arrows for adjacent maps.


METAR-TAF: